sensor_id;sensor_type;location;lat;lon;timestamp;temperature;humidity
41469;DHT22;27206;47.032;15.484;2023-04-23T00:00:12;9.80;99.90
41469;DHT22;27206;47.032;15.484;2023-04-23T00:02:39;9.80;99.90
41469;DHT22;27206;47.032;15.484;2023-04-23T00:05:08;9.60;99.90
41469;DHT22;27206;47.032;15.484;2023-04-23T00:07:34;9.60;99.90
41469;DHT22;27206;47.032;15.484;2023-04-23T00:10:01;9.60;99.90
41469;DHT22;27206;47.032;15.484;2023-04-23T00:12:30;9.60;99.90
41469;DHT22;27206;47.032;15.484;2023-04-23T00:14:56;9.50;99.90
41469;DHT22;27206;47.032;15.484;2023-04-23T00:17:22;9.40;99.90
41469;DHT22;27206;47.032;15.484;2023-04-23T00:19:48;9.30;99.90
41469;DHT22;27206;47.032;15.484;2023-04-23T00:22:14;9.10;99.90
41469;DHT22;27206;47.032;15.484;2023-04-23T00:24:41;9.10;99.90
41469;DHT22;27206;47.032;15.484;2023-04-23T00:27:07;9.20;99.90
41469;DHT22;27206;47.032;15.484;2023-04-23T00:29:33;9.20;99.90
41469;DHT22;27206;47.032;15.484;2023-04-23T00:31:59;9.20;99.90
41469;DHT22;27206;47.032;15.484;2023-04-23T00:34:25;9.20;99.90
41469;DHT22;27206;47.032;15.484;2023-04-23T00:36:50;9.20;99.90
41469;DHT22;27206;47.032;15.484;2023-04-23T00:39:16;9.20;99.90
41469;DHT22;27206;47.032;15.484;2023-04-23T00:41:42;9.20;99.90
41469;DHT22;27206;47.032;15.484;2023-04-23T00:44:09;9.20;99.90
41469;DHT22;27206;47.032;15.484;2023-04-23T00:46:35;9.20;99.90
41469;DHT22;27206;47.032;15.484;2023-04-23T00:49:01;9.10;99.90
41469;DHT22;27206;47.032;15.484;2023-04-23T00:51:28;9.10;99.90
41469;DHT22;27206;47.032;15.484;2023-04-23T00:53:54;9.00;99.90
41469;DHT22;27206;47.032;15.484;2023-04-23T00:56:24;8.80;99.90
41469;DHT22;27206;47.032;15.484;2023-04-23T00:58:51;8.80;99.90
41469;DHT22;27206;47.032;15.484;2023-04-23T01:01:19;8.80;99.90
41469;DHT22;27206;47.032;15.484;2023-04-23T01:03:48;8.90;99.90
41469;DHT22;27206;47.032;15.484;2023-04-23T01:06:14;8.90;99.90
41469;DHT22;27206;47.032;15.484;2023-04-23T01:08:42;8.90;99.90
41469;DHT22;27206;47.032;15.484;2023-04-23T01:11:08;8.90;99.90
41469;DHT22;27206;47.032;15.484;2023-04-23T01:13:34;8.80;99.90
41469;DHT22;27206;47.032;15.484;2023-04-23T01:16:00;8.70;99.90
41469;DHT22;27206;47.032;15.484;2023-04-23T01:18:27;8.60;99.90
41469;DHT22;27206;47.032;15.484;2023-04-23T01:20:54;8.60;99.90
41469;DHT22;27206;47.032;15.484;2023-04-23T01:23:20;8.60;99.90
41469;DHT22;27206;47.032;15.484;2023-04-23T01:25:45;8.60;99.90
41469;DHT22;27206;47.032;15.484;2023-04-23T01:28:11;8.60;99.90
41469;DHT22;27206;47.032;15.484;2023-04-23T01:30:37;8.50;99.90
41469;DHT22;27206;47.032;15.484;2023-04-23T01:33:03;8.50;99.90
41469;DHT22;27206;47.032;15.484;2023-04-23T01:35:30;8.60;1.00
41469;DHT22;27206;47.032;15.484;2023-04-23T01:37:58;8.70;99.90
41469;DHT22;27206;47.032;15.484;2023-04-23T01:40:25;8.70;99.90
41469;DHT22;27206;47.032;15.484;2023-04-23T01:42:50;8.70;99.90
41469;DHT22;27206;47.032;15.484;2023-04-23T01:45:16;8.60;99.90
41469;DHT22;27206;47.032;15.484;2023-04-23T01:47:44;8.60;99.90
41469;DHT22;27206;47.032;15.484;2023-04-23T01:50:11;8.50;99.90
41469;DHT22;27206;47.032;15.484;2023-04-23T01:52:36;8.50;99.90
41469;DHT22;27206;47.032;15.484;2023-04-23T01:55:03;8.30;99.90
41469;DHT22;27206;47.032;15.484;2023-04-23T01:57:28;8.40;99.90
41469;DHT22;27206;47.032;15.484;2023-04-23T02:00:08;8.30;1.00
41469;DHT22;27206;47.032;15.484;2023-04-23T02:02:36;8.40;99.90
41469;DHT22;27206;47.032;15.484;2023-04-23T02:05:02;8.40;1.00
41469;DHT22;27206;47.032;15.484;2023-04-23T02:07:32;8.40;99.90
41469;DHT22;27206;47.032;15.484;2023-04-23T02:09:58;8.30;1.00
41469;DHT22;27206;47.032;15.484;2023-04-23T02:12:24;8.30;1.00
41469;DHT22;27206;47.032;15.484;2023-04-23T02:14:51;8.30;1.00
41469;DHT22;27206;47.032;15.484;2023-04-23T02:17:21;8.30;1.00
41469;DHT22;27206;47.032;15.484;2023-04-23T02:19:47;8.30;1.00
41469;DHT22;27206;47.032;15.484;2023-04-23T02:22:13;8.20;99.90
41469;DHT22;27206;47.032;15.484;2023-04-23T02:24:39;8.20;1.00
41469;DHT22;27206;47.032;15.484;2023-04-23T02:27:07;8.10;1.00
41469;DHT22;27206;47.032;15.484;2023-04-23T02:29:33;8.10;1.00
41469;DHT22;27206;47.032;15.484;2023-04-23T02:31:59;8.20;1.00
41469;DHT22;27206;47.032;15.484;2023-04-23T02:34:24;8.20;1.00
41469;DHT22;27206;47.032;15.484;2023-04-23T02:36:50;8.10;99.90
41469;DHT22;27206;47.032;15.484;2023-04-23T02:39:17;8.00;99.90
41469;DHT22;27206;47.032;15.484;2023-04-23T02:41:42;8.00;99.90
41469;DHT22;27206;47.032;15.484;2023-04-23T02:44:08;7.70;1.00
41469;DHT22;27206;47.032;15.484;2023-04-23T02:46:34;7.70;1.00
41469;DHT22;27206;47.032;15.484;2023-04-23T02:49:02;7.70;1.00
41469;DHT22;27206;47.032;15.484;2023-04-23T02:51:28;7.70;1.00
41469;DHT22;27206;47.032;15.484;2023-04-23T02:53:54;7.80;1.00
41469;DHT22;27206;47.032;15.484;2023-04-23T02:56:19;7.80;1.00
41469;DHT22;27206;47.032;15.484;2023-04-23T02:58:45;7.80;1.00
41469;DHT22;27206;47.032;15.484;2023-04-23T03:01:11;7.70;1.00
41469;DHT22;27206;47.032;15.484;2023-04-23T03:03:37;7.70;1.00
41469;DHT22;27206;47.032;15.484;2023-04-23T03:06:03;7.70;1.00
41469;DHT22;27206;47.032;15.484;2023-04-23T03:08:28;7.60;1.00
41469;DHT22;27206;47.032;15.484;2023-04-23T03:10:54;7.70;1.00
41469;DHT22;27206;47.032;15.484;2023-04-23T03:13:20;7.70;1.00
41469;DHT22;27206;47.032;15.484;2023-04-23T03:15:46;7.70;1.00
41469;DHT22;27206;47.032;15.484;2023-04-23T03:18:12;7.70;1.00
41469;DHT22;27206;47.032;15.484;2023-04-23T03:20:37;7.60;1.00
41469;DHT22;27206;47.032;15.484;2023-04-23T03:23:03;7.60;1.00
41469;DHT22;27206;47.032;15.484;2023-04-23T03:25:32;7.50;1.00
41469;DHT22;27206;47.032;15.484;2023-04-23T03:27:58;7.40;1.00
41469;DHT22;27206;47.032;15.484;2023-04-23T03:30:24;7.30;1.00
41469;DHT22;27206;47.032;15.484;2023-04-23T03:32:51;7.30;1.00
41469;DHT22;27206;47.032;15.484;2023-04-23T03:35:17;7.20;1.00
41469;DHT22;27206;47.032;15.484;2023-04-23T03:37:43;7.20;1.00
41469;DHT22;27206;47.032;15.484;2023-04-23T03:40:09;7.30;1.00
41469;DHT22;27206;47.032;15.484;2023-04-23T03:42:34;7.30;1.00
41469;DHT22;27206;47.032;15.484;2023-04-23T03:45:00;7.30;1.00
41469;DHT22;27206;47.032;15.484;2023-04-23T03:47:26;7.20;1.00
41469;DHT22;27206;47.032;15.484;2023-04-23T03:49:52;7.10;1.00
41469;DHT22;27206;47.032;15.484;2023-04-23T03:52:18;7.20;1.00
41469;DHT22;27206;47.032;15.484;2023-04-23T03:54:43;7.10;1.00
41469;DHT22;27206;47.032;15.484;2023-04-23T03:57:09;7.00;1.00
41469;DHT22;27206;47.032;15.484;2023-04-23T03:59:36;7.20;1.00
41469;DHT22;27206;47.032;15.484;2023-04-23T04:02:02;7.10;1.00
41469;DHT22;27206;47.032;15.484;2023-04-23T04:04:31;7.00;1.00
41469;DHT22;27206;47.032;15.484;2023-04-23T04:06:57;7.10;1.00
41469;DHT22;27206;47.032;15.484;2023-04-23T04:09:25;7.20;1.00
41469;DHT22;27206;47.032;15.484;2023-04-23T04:11:51;7.30;1.00
41469;DHT22;27206;47.032;15.484;2023-04-23T04:14:18;7.30;1.00
41469;DHT22;27206;47.032;15.484;2023-04-23T04:16:44;7.30;1.00
41469;DHT22;27206;47.032;15.484;2023-04-23T04:19:10;7.30;1.00
41469;DHT22;27206;47.032;15.484;2023-04-23T04:21:36;7.30;1.00
41469;DHT22;27206;47.032;15.484;2023-04-23T04:24:02;7.30;1.00
41469;DHT22;27206;47.032;15.484;2023-04-23T04:26:29;7.40;1.00
41469;DHT22;27206;47.032;15.484;2023-04-23T04:28:57;7.40;1.00
41469;DHT22;27206;47.032;15.484;2023-04-23T04:31:24;7.40;1.00
41469;DHT22;27206;47.032;15.484;2023-04-23T04:33:52;7.40;1.00
41469;DHT22;27206;47.032;15.484;2023-04-23T04:36:18;7.50;1.00
41469;DHT22;27206;47.032;15.484;2023-04-23T04:38:44;7.50;1.00
41469;DHT22;27206;47.032;15.484;2023-04-23T04:41:09;7.50;1.00
41469;DHT22;27206;47.032;15.484;2023-04-23T04:43:35;7.50;1.00
41469;DHT22;27206;47.032;15.484;2023-04-23T04:46:02;7.60;1.00
41469;DHT22;27206;47.032;15.484;2023-04-23T04:48:28;7.60;1.00
41469;DHT22;27206;47.032;15.484;2023-04-23T04:50:54;7.60;1.00
41469;DHT22;27206;47.032;15.484;2023-04-23T04:53:19;7.70;1.00
41469;DHT22;27206;47.032;15.484;2023-04-23T04:55:45;7.70;1.00
41469;DHT22;27206;47.032;15.484;2023-04-23T04:58:10;7.80;1.00
41469;DHT22;27206;47.032;15.484;2023-04-23T05:00:36;7.90;1.00
41469;DHT22;27206;47.032;15.484;2023-04-23T05:03:02;8.00;1.00
41469;DHT22;27206;47.032;15.484;2023-04-23T05:05:28;8.10;1.00
41469;DHT22;27206;47.032;15.484;2023-04-23T05:07:54;8.20;1.00
41469;DHT22;27206;47.032;15.484;2023-04-23T05:10:23;8.40;1.00
41469;DHT22;27206;47.032;15.484;2023-04-23T05:12:49;8.40;1.00
41469;DHT22;27206;47.032;15.484;2023-04-23T05:15:16;8.50;1.00
41469;DHT22;27206;47.032;15.484;2023-04-23T05:17:42;8.70;1.00
41469;DHT22;27206;47.032;15.484;2023-04-23T05:20:08;8.80;1.00
41469;DHT22;27206;47.032;15.484;2023-04-23T05:22:39;8.80;1.00
41469;DHT22;27206;47.032;15.484;2023-04-23T05:25:09;8.90;1.00
41469;DHT22;27206;47.032;15.484;2023-04-23T05:27:36;9.00;1.00
41469;DHT22;27206;47.032;15.484;2023-04-23T05:30:05;9.10;1.00
41469;DHT22;27206;47.032;15.484;2023-04-23T05:32:31;9.30;1.00
41469;DHT22;27206;47.032;15.484;2023-04-23T05:34:57;9.40;1.00
41469;DHT22;27206;47.032;15.484;2023-04-23T05:37:24;9.50;1.00
41469;DHT22;27206;47.032;15.484;2023-04-23T05:39:50;9.60;99.90
41469;DHT22;27206;47.032;15.484;2023-04-23T05:42:15;9.70;99.90
41469;DHT22;27206;47.032;15.484;2023-04-23T05:44:41;9.80;99.90
41469;DHT22;27206;47.032;15.484;2023-04-23T05:47:08;9.80;99.90
41469;DHT22;27206;47.032;15.484;2023-04-23T05:49:34;9.90;99.90
41469;DHT22;27206;47.032;15.484;2023-04-23T05:52:00;10.00;99.90
41469;DHT22;27206;47.032;15.484;2023-04-23T05:54:27;10.00;99.90
41469;DHT22;27206;47.032;15.484;2023-04-23T05:56:53;10.10;99.90
41469;DHT22;27206;47.032;15.484;2023-04-23T05:59:19;10.20;99.90
41469;DHT22;27206;47.032;15.484;2023-04-23T06:01:46;10.40;99.90
41469;DHT22;27206;47.032;15.484;2023-04-23T06:04:12;10.50;99.90
41469;DHT22;27206;47.032;15.484;2023-04-23T06:06:38;10.60;99.90
41469;DHT22;27206;47.032;15.484;2023-04-23T06:09:04;10.70;99.90
41469;DHT22;27206;47.032;15.484;2023-04-23T06:11:30;10.70;99.90
41469;DHT22;27206;47.032;15.484;2023-04-23T06:14:00;10.80;99.90
41469;DHT22;27206;47.032;15.484;2023-04-23T06:16:26;10.90;99.90
41469;DHT22;27206;47.032;15.484;2023-04-23T06:18:52;11.00;99.90
41469;DHT22;27206;47.032;15.484;2023-04-23T06:21:18;11.10;99.90
41469;DHT22;27206;47.032;15.484;2023-04-23T06:23:44;11.30;99.90
41469;DHT22;27206;47.032;15.484;2023-04-23T06:26:10;11.30;99.90
41469;DHT22;27206;47.032;15.484;2023-04-23T06:28:35;11.40;99.90
41469;DHT22;27206;47.032;15.484;2023-04-23T06:31:01;11.50;99.90
41469;DHT22;27206;47.032;15.484;2023-04-23T06:33:27;11.50;99.90
41469;DHT22;27206;47.032;15.484;2023-04-23T06:35:52;11.60;99.90
41469;DHT22;27206;47.032;15.484;2023-04-23T06:38:18;11.70;99.90
41469;DHT22;27206;47.032;15.484;2023-04-23T06:40:45;11.80;99.90
41469;DHT22;27206;47.032;15.484;2023-04-23T06:43:11;11.80;99.90
41469;DHT22;27206;47.032;15.484;2023-04-23T06:45:37;11.90;99.90
41469;DHT22;27206;47.032;15.484;2023-04-23T06:48:03;12.00;99.90
41469;DHT22;27206;47.032;15.484;2023-04-23T06:50:28;12.10;99.90
41469;DHT22;27206;47.032;15.484;2023-04-23T06:52:54;12.20;99.90
41469;DHT22;27206;47.032;15.484;2023-04-23T06:55:20;12.30;99.90
41469;DHT22;27206;47.032;15.484;2023-04-23T06:57:51;12.40;99.90
41469;DHT22;27206;47.032;15.484;2023-04-23T07:00:16;12.40;99.90
41469;DHT22;27206;47.032;15.484;2023-04-23T07:02:42;12.40;99.90
41469;DHT22;27206;47.032;15.484;2023-04-23T07:05:08;12.40;99.90
41469;DHT22;27206;47.032;15.484;2023-04-23T07:07:34;12.50;99.90
41469;DHT22;27206;47.032;15.484;2023-04-23T07:10:02;12.60;99.90
41469;DHT22;27206;47.032;15.484;2023-04-23T07:12:28;12.70;99.90
41469;DHT22;27206;47.032;15.484;2023-04-23T07:14:54;12.70;99.90
41469;DHT22;27206;47.032;15.484;2023-04-23T07:17:20;12.80;99.90
41469;DHT22;27206;47.032;15.484;2023-04-23T07:19:46;12.90;99.90
41469;DHT22;27206;47.032;15.484;2023-04-23T07:22:12;13.00;99.90
41469;DHT22;27206;47.032;15.484;2023-04-23T07:24:38;13.20;99.90
41469;DHT22;27206;47.032;15.484;2023-04-23T07:27:05;13.20;99.90
41469;DHT22;27206;47.032;15.484;2023-04-23T07:29:30;13.30;99.90
41469;DHT22;27206;47.032;15.484;2023-04-23T07:31:56;13.30;99.90
41469;DHT22;27206;47.032;15.484;2023-04-23T07:34:22;13.40;99.90
41469;DHT22;27206;47.032;15.484;2023-04-23T07:36:47;13.50;99.90
41469;DHT22;27206;47.032;15.484;2023-04-23T07:39:13;13.60;99.90
41469;DHT22;27206;47.032;15.484;2023-04-23T07:41:39;13.60;99.90
41469;DHT22;27206;47.032;15.484;2023-04-23T07:44:05;13.70;99.90
41469;DHT22;27206;47.032;15.484;2023-04-23T07:46:30;13.80;99.90
41469;DHT22;27206;47.032;15.484;2023-04-23T07:48:56;13.90;99.90
41469;DHT22;27206;47.032;15.484;2023-04-23T07:51:22;14.00;99.90
41469;DHT22;27206;47.032;15.484;2023-04-23T07:53:54;14.20;99.90
41469;DHT22;27206;47.032;15.484;2023-04-23T07:56:21;14.30;99.90
41469;DHT22;27206;47.032;15.484;2023-04-23T07:58:47;14.40;99.90
41469;DHT22;27206;47.032;15.484;2023-04-23T08:01:13;14.60;99.90
41469;DHT22;27206;47.032;15.484;2023-04-23T08:03:39;14.60;99.90
41469;DHT22;27206;47.032;15.484;2023-04-23T08:06:05;14.80;99.90
41469;DHT22;27206;47.032;15.484;2023-04-23T08:08:30;15.00;99.90
41469;DHT22;27206;47.032;15.484;2023-04-23T08:10:56;15.20;99.90
41469;DHT22;27206;47.032;15.484;2023-04-23T08:13:22;15.40;99.90
41469;DHT22;27206;47.032;15.484;2023-04-23T08:15:48;15.50;99.90
41469;DHT22;27206;47.032;15.484;2023-04-23T08:18:14;15.70;99.90
41469;DHT22;27206;47.032;15.484;2023-04-23T08:20:39;15.90;99.90
41469;DHT22;27206;47.032;15.484;2023-04-23T08:23:05;16.20;99.90
41469;DHT22;27206;47.032;15.484;2023-04-23T08:25:31;16.40;99.90
41469;DHT22;27206;47.032;15.484;2023-04-23T08:27:57;16.50;99.90
41469;DHT22;27206;47.032;15.484;2023-04-23T08:30:23;16.70;99.90
41469;DHT22;27206;47.032;15.484;2023-04-23T08:32:50;16.70;99.90
41469;DHT22;27206;47.032;15.484;2023-04-23T08:35:18;16.90;99.90
41469;DHT22;27206;47.032;15.484;2023-04-23T08:37:44;17.20;99.90
41469;DHT22;27206;47.032;15.484;2023-04-23T08:40:10;17.20;99.90
41469;DHT22;27206;47.032;15.484;2023-04-23T08:42:49;17.10;99.90
41469;DHT22;27206;47.032;15.484;2023-04-23T08:45:17;17.00;99.90
41469;DHT22;27206;47.032;15.484;2023-04-23T08:47:43;17.00;99.90
41469;DHT22;27206;47.032;15.484;2023-04-23T08:50:12;17.00;99.90
41469;DHT22;27206;47.032;15.484;2023-04-23T08:52:40;17.10;99.90
41469;DHT22;27206;47.032;15.484;2023-04-23T08:55:08;17.40;99.90
41469;DHT22;27206;47.032;15.484;2023-04-23T08:57:39;17.60;99.90
41469;DHT22;27206;47.032;15.484;2023-04-23T09:00:10;17.80;99.90
41469;DHT22;27206;47.032;15.484;2023-04-23T09:02:38;17.90;99.90
41469;DHT22;27206;47.032;15.484;2023-04-23T09:05:04;18.10;99.90
41469;DHT22;27206;47.032;15.484;2023-04-23T09:07:30;18.20;99.90
41469;DHT22;27206;47.032;15.484;2023-04-23T09:09:56;18.30;99.90
41469;DHT22;27206;47.032;15.484;2023-04-23T09:12:22;18.60;99.90
41469;DHT22;27206;47.032;15.484;2023-04-23T09:14:49;18.70;99.90
41469;DHT22;27206;47.032;15.484;2023-04-23T09:17:16;18.70;99.90
41469;DHT22;27206;47.032;15.484;2023-04-23T09:19:44;18.80;99.90
41469;DHT22;27206;47.032;15.484;2023-04-23T09:22:11;19.00;99.90
41469;DHT22;27206;47.032;15.484;2023-04-23T09:24:40;19.10;99.90
41469;DHT22;27206;47.032;15.484;2023-04-23T09:27:06;19.10;99.90
41469;DHT22;27206;47.032;15.484;2023-04-23T09:29:32;19.40;99.90
41469;DHT22;27206;47.032;15.484;2023-04-23T09:32:08;19.50;99.90
41469;DHT22;27206;47.032;15.484;2023-04-23T09:34:37;19.70;99.90
41469;DHT22;27206;47.032;15.484;2023-04-23T09:37:04;19.80;99.90
41469;DHT22;27206;47.032;15.484;2023-04-23T09:39:33;20.10;99.90
41469;DHT22;27206;47.032;15.484;2023-04-23T09:42:05;20.20;99.90
41469;DHT22;27206;47.032;15.484;2023-04-23T09:44:33;20.50;99.90
41469;DHT22;27206;47.032;15.484;2023-04-23T09:47:08;20.60;99.90
41469;DHT22;27206;47.032;15.484;2023-04-23T09:49:48;20.60;99.90
41469;DHT22;27206;47.032;15.484;2023-04-23T09:52:14;20.70;99.90
41469;DHT22;27206;47.032;15.484;2023-04-23T09:54:39;20.90;99.90
41469;DHT22;27206;47.032;15.484;2023-04-23T09:57:05;21.30;99.90
41469;DHT22;27206;47.032;15.484;2023-04-23T09:59:33;21.30;99.90
41469;DHT22;27206;47.032;15.484;2023-04-23T10:02:02;21.00;99.90
41469;DHT22;27206;47.032;15.484;2023-04-23T10:04:28;20.80;99.90
41469;DHT22;27206;47.032;15.484;2023-04-23T10:06:59;20.80;99.90
41469;DHT22;27206;47.032;15.484;2023-04-23T10:09:26;21.10;99.90
41469;DHT22;27206;47.032;15.484;2023-04-23T10:11:55;21.30;99.90
41469;DHT22;27206;47.032;15.484;2023-04-23T10:14:22;21.60;99.90
41469;DHT22;27206;47.032;15.484;2023-04-23T10:16:51;21.70;99.90
41469;DHT22;27206;47.032;15.484;2023-04-23T10:19:19;21.30;99.90
41469;DHT22;27206;47.032;15.484;2023-04-23T10:21:49;21.70;99.90
41469;DHT22;27206;47.032;15.484;2023-04-23T10:24:17;22.10;99.90
41469;DHT22;27206;47.032;15.484;2023-04-23T10:26:45;22.30;99.90
41469;DHT22;27206;47.032;15.484;2023-04-23T10:29:13;22.40;99.90
41469;DHT22;27206;47.032;15.484;2023-04-23T10:31:41;22.20;99.90
41469;DHT22;27206;47.032;15.484;2023-04-23T10:34:09;22.30;99.90
41469;DHT22;27206;47.032;15.484;2023-04-23T10:36:36;22.20;99.90
41469;DHT22;27206;47.032;15.484;2023-04-23T10:39:02;22.50;99.90
41469;DHT22;27206;47.032;15.484;2023-04-23T10:41:37;22.40;99.90
41469;DHT22;27206;47.032;15.484;2023-04-23T10:44:04;22.50;99.90
41469;DHT22;27206;47.032;15.484;2023-04-23T10:46:31;22.60;99.90
41469;DHT22;27206;47.032;15.484;2023-04-23T10:49:07;22.60;99.90
41469;DHT22;27206;47.032;15.484;2023-04-23T10:51:35;22.90;99.90
41469;DHT22;27206;47.032;15.484;2023-04-23T10:54:04;23.00;99.90
41469;DHT22;27206;47.032;15.484;2023-04-23T10:56:30;23.10;99.90
41469;DHT22;27206;47.032;15.484;2023-04-23T10:58:56;22.90;99.90
41469;DHT22;27206;47.032;15.484;2023-04-23T11:01:27;23.20;99.90
41469;DHT22;27206;47.032;15.484;2023-04-23T11:03:55;23.50;99.90
41469;DHT22;27206;47.032;15.484;2023-04-23T11:06:57;23.50;99.90
41469;DHT22;27206;47.032;15.484;2023-04-23T11:12:10;23.50;99.90
41469;DHT22;27206;47.032;15.484;2023-04-23T11:14:46;23.50;99.90
41469;DHT22;27206;47.032;15.484;2023-04-23T11:17:14;23.40;99.90
41469;DHT22;27206;47.032;15.484;2023-04-23T11:19:41;23.40;99.90
41469;DHT22;27206;47.032;15.484;2023-04-23T11:22:33;23.70;99.90
41469;DHT22;27206;47.032;15.484;2023-04-23T11:25:00;23.60;99.90
41469;DHT22;27206;47.032;15.484;2023-04-23T11:27:29;23.60;99.90
41469;DHT22;27206;47.032;15.484;2023-04-23T11:29:56;23.90;99.90
41469;DHT22;27206;47.032;15.484;2023-04-23T11:32:22;23.80;99.90
41469;DHT22;27206;47.032;15.484;2023-04-23T11:34:49;23.60;99.90
41469;DHT22;27206;47.032;15.484;2023-04-23T11:37:17;23.40;99.90
41469;DHT22;27206;47.032;15.484;2023-04-23T11:39:44;23.40;99.90
41469;DHT22;27206;47.032;15.484;2023-04-23T11:42:10;23.40;99.90
41469;DHT22;27206;47.032;15.484;2023-04-23T11:44:38;23.50;99.90
41469;DHT22;27206;47.032;15.484;2023-04-23T11:47:10;23.70;99.90
41469;DHT22;27206;47.032;15.484;2023-04-23T11:49:37;23.70;99.90
41469;DHT22;27206;47.032;15.484;2023-04-23T11:52:03;23.80;99.90
41469;DHT22;27206;47.032;15.484;2023-04-23T11:54:29;23.90;99.90
41469;DHT22;27206;47.032;15.484;2023-04-23T11:56:57;23.80;99.90
41469;DHT22;27206;47.032;15.484;2023-04-23T11:59:24;23.60;99.90
41469;DHT22;27206;47.032;15.484;2023-04-23T12:01:53;23.60;99.90
41469;DHT22;27206;47.032;15.484;2023-04-23T12:04:24;23.60;99.90
41469;DHT22;27206;47.032;15.484;2023-04-23T12:06:51;23.80;99.90
41469;DHT22;27206;47.032;15.484;2023-04-23T12:09:19;23.60;99.90
41469;DHT22;27206;47.032;15.484;2023-04-23T12:11:45;23.80;99.90
41469;DHT22;27206;47.032;15.484;2023-04-23T12:14:13;23.70;99.90
41469;DHT22;27206;47.032;15.484;2023-04-23T12:16:41;24.10;99.90
41469;DHT22;27206;47.032;15.484;2023-04-23T12:19:08;24.50;99.90
41469;DHT22;27206;47.032;15.484;2023-04-23T12:21:34;24.80;99.90
41469;DHT22;27206;47.032;15.484;2023-04-23T12:24:11;25.00;99.90
41469;DHT22;27206;47.032;15.484;2023-04-23T12:26:36;24.30;99.90
41469;DHT22;27206;47.032;15.484;2023-04-23T12:29:02;24.40;99.90
41469;DHT22;27206;47.032;15.484;2023-04-23T12:31:28;24.60;99.90
41469;DHT22;27206;47.032;15.484;2023-04-23T12:34:06;24.20;99.90
41469;DHT22;27206;47.032;15.484;2023-04-23T12:36:34;23.90;99.90
41469;DHT22;27206;47.032;15.484;2023-04-23T12:39:19;24.40;99.90
41469;DHT22;27206;47.032;15.484;2023-04-23T12:41:47;24.70;99.90
41469;DHT22;27206;47.032;15.484;2023-04-23T12:44:13;25.40;99.90
41469;DHT22;27206;47.032;15.484;2023-04-23T12:46:39;25.40;99.90
41469;DHT22;27206;47.032;15.484;2023-04-23T12:49:05;25.30;99.90
41469;DHT22;27206;47.032;15.484;2023-04-23T12:51:30;25.10;99.90
41469;DHT22;27206;47.032;15.484;2023-04-23T12:53:56;25.10;99.90
41469;DHT22;27206;47.032;15.484;2023-04-23T12:56:22;25.40;99.90
41469;DHT22;27206;47.032;15.484;2023-04-23T12:58:47;25.20;99.90
41469;DHT22;27206;47.032;15.484;2023-04-23T13:01:13;24.80;99.90
41469;DHT22;27206;47.032;15.484;2023-04-23T13:03:39;25.10;99.90
41469;DHT22;27206;47.032;15.484;2023-04-23T13:06:05;25.10;99.90
41469;DHT22;27206;47.032;15.484;2023-04-23T13:08:32;24.80;99.90
41469;DHT22;27206;47.032;15.484;2023-04-23T13:10:58;24.90;99.90
41469;DHT22;27206;47.032;15.484;2023-04-23T13:13:25;25.20;99.90
41469;DHT22;27206;47.032;15.484;2023-04-23T13:15:51;25.30;99.90
41469;DHT22;27206;47.032;15.484;2023-04-23T13:18:18;26.00;99.90
41469;DHT22;27206;47.032;15.484;2023-04-23T13:20:43;26.50;99.90
41469;DHT22;27206;47.032;15.484;2023-04-23T13:23:09;26.30;99.90
41469;DHT22;27206;47.032;15.484;2023-04-23T13:25:36;26.30;99.90
41469;DHT22;27206;47.032;15.484;2023-04-23T13:28:02;25.90;99.90
41469;DHT22;27206;47.032;15.484;2023-04-23T13:30:28;26.10;99.90
41469;DHT22;27206;47.032;15.484;2023-04-23T13:32:54;25.90;99.90
41469;DHT22;27206;47.032;15.484;2023-04-23T13:35:21;25.90;99.90
41469;DHT22;27206;47.032;15.484;2023-04-23T13:37:46;25.90;99.90
41469;DHT22;27206;47.032;15.484;2023-04-23T13:40:12;26.30;99.90
41469;DHT22;27206;47.032;15.484;2023-04-23T13:42:38;25.60;99.90
41469;DHT22;27206;47.032;15.484;2023-04-23T13:45:04;24.70;99.90
41469;DHT22;27206;47.032;15.484;2023-04-23T13:47:30;25.10;99.90
41469;DHT22;27206;47.032;15.484;2023-04-23T13:49:58;25.60;99.90
41469;DHT22;27206;47.032;15.484;2023-04-23T13:52:24;25.70;99.90
41469;DHT22;27206;47.032;15.484;2023-04-23T13:54:50;25.70;99.90
41469;DHT22;27206;47.032;15.484;2023-04-23T13:57:17;25.60;99.90
41469;DHT22;27206;47.032;15.484;2023-04-23T13:59:42;25.30;99.90
41469;DHT22;27206;47.032;15.484;2023-04-23T14:02:08;25.40;99.90
41469;DHT22;27206;47.032;15.484;2023-04-23T14:04:34;25.10;99.90
41469;DHT22;27206;47.032;15.484;2023-04-23T14:07:00;24.80;99.90
41469;DHT22;27206;47.032;15.484;2023-04-23T14:09:25;25.10;99.90
41469;DHT22;27206;47.032;15.484;2023-04-23T14:11:51;24.90;99.90
41469;DHT22;27206;47.032;15.484;2023-04-23T14:14:17;24.90;99.90
41469;DHT22;27206;47.032;15.484;2023-04-23T14:16:43;24.80;99.90
41469;DHT22;27206;47.032;15.484;2023-04-23T14:19:08;24.80;99.90
41469;DHT22;27206;47.032;15.484;2023-04-23T14:21:34;24.50;99.90
41469;DHT22;27206;47.032;15.484;2023-04-23T14:29:01;24.00;99.90
41469;DHT22;27206;47.032;15.484;2023-04-23T14:31:26;24.10;99.90
41469;DHT22;27206;47.032;15.484;2023-04-23T14:33:55;24.10;99.90
41469;DHT22;27206;47.032;15.484;2023-04-23T14:36:23;23.70;99.90
41469;DHT22;27206;47.032;15.484;2023-04-23T14:38:49;23.90;99.90
41469;DHT22;27206;47.032;15.484;2023-04-23T14:41:14;23.80;99.90
41469;DHT22;27206;47.032;15.484;2023-04-23T14:43:43;23.80;99.90
41469;DHT22;27206;47.032;15.484;2023-04-23T14:46:09;23.70;99.90
41469;DHT22;27206;47.032;15.484;2023-04-23T14:48:35;23.80;99.90
41469;DHT22;27206;47.032;15.484;2023-04-23T14:51:00;24.10;99.90
41469;DHT22;27206;47.032;15.484;2023-04-23T14:53:26;24.00;99.90
41469;DHT22;27206;47.032;15.484;2023-04-23T14:55:52;24.00;99.90
41469;DHT22;27206;47.032;15.484;2023-04-23T14:58:17;23.90;99.90
41469;DHT22;27206;47.032;15.484;2023-04-23T15:00:43;23.70;99.90
41469;DHT22;27206;47.032;15.484;2023-04-23T15:03:09;23.20;99.90
41469;DHT22;27206;47.032;15.484;2023-04-23T15:05:38;22.80;99.90
41469;DHT22;27206;47.032;15.484;2023-04-23T15:08:04;22.70;99.90
41469;DHT22;27206;47.032;15.484;2023-04-23T15:10:30;22.40;99.90
41469;DHT22;27206;47.032;15.484;2023-04-23T15:16:02;22.10;99.90
41469;DHT22;27206;47.032;15.484;2023-04-23T15:18:28;21.90;99.90
41469;DHT22;27206;47.032;15.484;2023-04-23T15:20:53;21.70;99.90
41469;DHT22;27206;47.032;15.484;2023-04-23T15:23:19;21.70;99.90
41469;DHT22;27206;47.032;15.484;2023-04-23T15:25:48;21.60;99.90
41469;DHT22;27206;47.032;15.484;2023-04-23T15:28:13;21.40;99.90
41469;DHT22;27206;47.032;15.484;2023-04-23T15:30:40;21.30;99.90
41469;DHT22;27206;47.032;15.484;2023-04-23T15:33:07;21.30;99.90